Archival Weather

Tokyo Intl

Tokyo, Japan (RJTT)

Report from: Tuesday, November 21, 2023 11:00 PM JST
Current time: Saturday, March 2, 2024 6:17 PM JST

Current weather – Weather history – Daily summaries
Weather forecast

Temperature14.0°C (57.2°F)
Dew point7.0°C (44.6°F)
Winds 5 kts (2.6 m/s, 5.8 mph) North-Northeast (20°)
Clouds Sky clear
Altimeter30.12 in.Hg (1020 mB)
Relative humidity63 %
Density altitude-201 ft. (-61 m)
Remarks Ceiling and visibility OK
No significant changes expected in the next two hours
Flight conditions Visual Meteorological Conditions
Raw dataRJTT 211400Z 02005KT CAVOK 14/07 Q1020 NOSIG RMK A3015
An error has occurred. This application may no longer respond until reloaded. Reload 🗙